Time,TemperatureF,DewpointF,PressureIn,WindDirection,WindDirectionDegrees,WindSpeedMPH,WindSpeedGustMPH,Humidity,HourlyPrecipIn,Conditions,Clouds,dailyrainin,SoftwareType,DateUTC
2013-08-06 00:00:00,60.0,55.0,-100.00,SSW,193,2.0,3.0,84,0.00,,,-99.99,,2013-08-06 04:00:00,
2013-08-06 00:33:00,60.0,55.0,-100.00,SSW,193,2.0,3.0,84,0.00,,,-99.99,,2013-08-06 04:33:00,
2013-08-06 00:44:00,60.0,55.0,-100.00,SSW,193,2.0,3.0,84,0.00,,,-99.99,,2013-08-06 04:44:00,
2013-08-06 00:54:00,60.0,55.0,-100.00,SSW,193,2.0,3.0,84,0.00,,,-99.99,,2013-08-06 04:54:00,
2013-08-06 01:00:00,59.0,55.0,-100.00,SSW,197,0.0,3.0,87,0.00,,,-99.99,,2013-08-06 05:00:00,
2013-08-06 01:32:00,59.0,55.0,-100.00,SSW,197,0.0,3.0,87,0.00,,,-99.99,,2013-08-06 05:32:00,
2013-08-06 01:43:00,59.0,55.0,-100.00,SSW,197,0.0,3.0,87,0.00,,,-99.99,,2013-08-06 05:43:00,
2013-08-06 01:53:00,59.0,55.0,-100.00,SSW,197,0.0,3.0,87,0.00,,,-99.99,,2013-08-06 05:53:00,
2013-08-06 02:00:00,59.0,55.0,-100.00,SSW,198,1.0,3.0,88,0.00,,,-99.99,,2013-08-06 06:00:00,
2013-08-06 02:32:00,59.0,55.0,-100.00,SSW,198,1.0,3.0,88,0.00,,,-99.99,,2013-08-06 06:32:00,
2013-08-06 02:43:00,59.0,55.0,-100.00,SSW,198,1.0,3.0,88,0.00,,,-99.99,,2013-08-06 06:43:00,
2013-08-06 02:52:00,59.0,55.0,-100.00,SSW,198,1.0,3.0,88,0.00,,,-99.99,,2013-08-06 06:52:00,
2013-08-06 03:00:00,59.0,54.0,-100.00,SSW,204,3.0,3.0,83,0.00,,,-99.99,,2013-08-06 07:00:00,
2013-08-06 03:32:00,59.0,54.0,-100.00,SSW,204,3.0,3.0,83,0.00,,,-99.99,,2013-08-06 07:32:00,
2013-08-06 03:44:00,59.0,54.0,-100.00,SSW,204,3.0,3.0,83,0.00,,,-99.99,,2013-08-06 07:44:00,
2013-08-06 03:53:00,59.0,54.0,-100.00,SSW,204,3.0,3.0,83,0.00,,,-99.99,,2013-08-06 07:53:00,
2013-08-06 04:00:00,55.0,53.0,-100.00,South,178,0.0,3.0,92,0.00,,,-99.99,,2013-08-06 08:00:00,
2013-08-06 04:33:00,55.0,53.0,-100.00,South,178,0.0,3.0,92,0.00,,,-99.99,,2013-08-06 08:33:00,
2013-08-06 04:43:00,55.0,53.0,-100.00,South,178,0.0,3.0,92,0.00,,,-99.99,,2013-08-06 08:43:00,
2013-08-06 04:52:00,55.0,53.0,-100.00,South,178,0.0,3.0,92,0.00,,,-99.99,,2013-08-06 08:52:00,
2013-08-06 05:00:00,55.0,53.0,-100.00,South,178,0.0,0.0,94,0.00,,,-99.99,,2013-08-06 09:00:00,
2013-08-06 05:33:00,55.0,53.0,-100.00,South,178,0.0,0.0,94,0.00,,,-99.99,,2013-08-06 09:33:00,
2013-08-06 05:43:00,55.0,53.0,-100.00,South,178,0.0,0.0,94,0.00,,,-99.99,,2013-08-06 09:43:00,
2013-08-06 05:52:00,55.0,53.0,-100.00,South,178,0.0,0.0,94,0.00,,,-99.99,,2013-08-06 09:52:00,
2013-08-06 06:00:00,54.0,53.0,-100.00,South,178,0.0,2.0,93,0.00,,,-99.99,,2013-08-06 10:00:00,
2013-08-06 06:32:00,54.0,53.0,-100.00,South,178,0.0,2.0,93,0.00,,,-99.99,,2013-08-06 10:32:00,
2013-08-06 06:43:00,54.0,53.0,-100.00,South,178,0.0,2.0,93,0.00,,,-99.99,,2013-08-06 10:43:00,
2013-08-06 06:53:00,54.0,53.0,-100.00,South,178,0.0,2.0,93,0.00,,,-99.99,,2013-08-06 10:53:00,
2013-08-06 07:00:00,56.0,55.0,-100.00,South,178,0.0,0.0,94,0.00,,,-99.99,,2013-08-06 11:00:00,
2013-08-06 07:32:00,56.0,55.0,-100.00,South,178,0.0,0.0,94,0.00,,,-99.99,,2013-08-06 11:32:00,
2013-08-06 07:43:00,56.0,55.0,-100.00,South,178,0.0,0.0,94,0.00,,,-99.99,,2013-08-06 11:43:00,
2013-08-06 07:53:00,56.0,55.0,-100.00,South,178,0.0,0.0,94,0.00,,,-99.99,,2013-08-06 11:53:00,
2013-08-06 08:00:00,65.0,59.0,-100.00,ENE,74,0.0,3.0,80,0.00,,,-99.99,,2013-08-06 12:00:00,
2013-08-06 08:32:00,65.0,59.0,-100.00,ENE,74,0.0,3.0,80,0.00,,,-99.99,,2013-08-06 12:32:00,
2013-08-06 08:43:00,65.0,59.0,-100.00,ENE,74,0.0,3.0,80,0.00,,,-99.99,,2013-08-06 12:43:00,
2013-08-06 08:52:00,65.0,59.0,-100.00,ENE,74,0.0,3.0,80,0.00,,,-99.99,,2013-08-06 12:52:00,
2013-08-06 09:00:00,72.0,62.0,-100.00,SW,233,0.0,-999.0,71,-99.99,,,-99.99,,2013-08-06 13:00:00,
2013-08-06 09:32:00,72.0,62.0,-100.00,SW,233,0.0,-999.0,71,-99.99,,,-99.99,,2013-08-06 13:32:00,
2013-08-06 09:42:00,72.0,62.0,-100.00,SW,233,0.0,-999.0,71,-99.99,,,-99.99,,2013-08-06 13:42:00,
2013-08-06 09:53:00,72.0,62.0,-100.00,SW,233,0.0,-999.0,71,-99.99,,,-99.99,,2013-08-06 13:53:00,
2013-08-06 11:00:00,78.0,54.0,-100.00,South,183,0.0,-999.0,42,-99.99,,,-99.99,,2013-08-06 15:00:00,
2013-08-06 11:44:00,78.0,54.0,-100.00,South,183,0.0,-999.0,42,-99.99,,,-99.99,,2013-08-06 15:44:00,
2013-08-06 11:52:00,78.0,54.0,-100.00,South,183,0.0,-999.0,42,-99.99,,,-99.99,,2013-08-06 15:52:00,
2013-08-06 12:00:00,79.0,55.0,-100.00,South,190,6.0,-999.0,44,-99.99,,,-99.99,,2013-08-06 16:00:00,
2013-08-06 12:32:00,79.0,55.0,-100.00,South,190,6.0,-999.0,44,-99.99,,,-99.99,,2013-08-06 16:32:00,
2013-08-06 12:43:00,79.0,55.0,-100.00,South,190,6.0,-999.0,44,-99.99,,,-99.99,,2013-08-06 16:43:00,
2013-08-06 12:52:00,79.0,55.0,-100.00,South,190,6.0,-999.0,44,-99.99,,,-99.99,,2013-08-06 16:52:00,
2013-08-06 13:00:00,73.0,61.0,-100.00,South,189,0.0,-999.0,68,-99.99,,,-99.99,,2013-08-06 17:00:00,
2013-08-06 13:32:00,73.0,61.0,-100.00,South,189,0.0,-999.0,68,-99.99,,,-99.99,,2013-08-06 17:32:00,
2013-08-06 13:44:00,73.0,61.0,-100.00,South,189,0.0,-999.0,68,-99.99,,,-99.99,,2013-08-06 17:44:00,
2013-08-06 13:52:00,73.0,61.0,-100.00,South,189,0.0,-999.0,68,-99.99,,,-99.99,,2013-08-06 17:52:00,
2013-08-06 14:00:00,73.0,61.0,-100.00,SSW,211,3.0,7.0,66,0.00,,,-99.99,,2013-08-06 18:00:00,
2013-08-06 14:32:00,73.0,61.0,-100.00,SSW,211,3.0,7.0,66,0.00,,,-99.99,,2013-08-06 18:32:00,
2013-08-06 14:44:00,73.0,61.0,-100.00,SSW,211,3.0,7.0,66,0.00,,,-99.99,,2013-08-06 18:44:00,
2013-08-06 14:52:00,73.0,61.0,-100.00,SSW,211,3.0,7.0,66,0.00,,,-99.99,,2013-08-06 18:52:00,
2013-08-06 15:00:00,67.0,62.0,-100.00,SW,214,3.0,13.0,82,0.00,,,-99.99,,2013-08-06 19:00:00,
2013-08-06 15:32:00,67.0,62.0,-100.00,SW,214,3.0,13.0,82,0.00,,,-99.99,,2013-08-06 19:32:00,
2013-08-06 15:42:00,67.0,62.0,-100.00,SW,214,3.0,13.0,82,0.00,,,-99.99,,2013-08-06 19:42:00,
2013-08-06 15:52:00,67.0,62.0,-100.00,SW,214,3.0,13.0,82,0.00,,,-99.99,,2013-08-06 19:52:00,
2013-08-06 16:00:00,70.0,64.0,-100.00,WSW,250,1.0,8.0,80,0.00,,,-99.99,,2013-08-06 20:00:00,
2013-08-06 16:44:00,70.0,64.0,-100.00,WSW,250,1.0,8.0,80,0.00,,,-99.99,,2013-08-06 20:44:00,
2013-08-06 16:52:00,70.0,64.0,-100.00,WSW,250,1.0,8.0,80,0.00,,,-99.99,,2013-08-06 20:52:00,
2013-08-06 17:00:00,70.0,62.0,-100.00,SSW,207,4.0,10.0,75,0.00,,,-99.99,,2013-08-06 21:00:00,
2013-08-06 17:32:00,70.0,62.0,-100.00,SSW,207,4.0,10.0,75,0.00,,,-99.99,,2013-08-06 21:32:00,
2013-08-06 17:43:00,70.0,62.0,-100.00,SSW,207,4.0,10.0,75,0.00,,,-99.99,,2013-08-06 21:43:00,
2013-08-06 17:52:00,70.0,62.0,-100.00,SSW,207,4.0,10.0,75,0.00,,,-99.99,,2013-08-06 21:52:00,
2013-08-06 18:00:00,68.0,63.0,-100.00,SSW,208,3.0,8.0,84,0.01,,,-99.99,,2013-08-06 22:00:00,
2013-08-06 18:32:00,68.0,63.0,-100.00,SSW,208,3.0,8.0,84,0.01,,,-99.99,,2013-08-06 22:32:00,
2013-08-06 18:43:00,68.0,63.0,-100.00,SSW,208,3.0,8.0,84,0.01,,,-99.99,,2013-08-06 22:43:00,
2013-08-06 18:53:00,68.0,63.0,-100.00,SSW,208,3.0,8.0,84,0.01,,,-99.99,,2013-08-06 22:53:00,
2013-08-06 19:00:00,68.0,64.0,-100.00,South,187,0.0,4.0,87,0.00,,,-99.99,,2013-08-06 23:00:00,
2013-08-06 19:43:00,68.0,64.0,-100.00,South,187,0.0,4.0,87,0.00,,,-99.99,,2013-08-06 23:43:00,
2013-08-06 19:52:00,68.0,64.0,-100.00,South,187,0.0,4.0,87,0.00,,,-99.99,,2013-08-06 23:52:00,
2013-08-06 20:00:00,67.0,64.0,-100.00,SE,132,0.0,2.0,90,0.00,,,-99.99,,2013-08-07 00:00:00,
2013-08-06 20:32:00,67.0,64.0,-100.00,SE,132,0.0,2.0,90,0.00,,,-99.99,,2013-08-07 00:32:00,
2013-08-06 20:43:00,67.0,64.0,-100.00,SE,132,0.0,2.0,90,0.00,,,-99.99,,2013-08-07 00:43:00,
2013-08-06 20:52:00,67.0,64.0,-100.00,SE,132,0.0,2.0,90,0.00,,,-99.99,,2013-08-07 00:52:00,
2013-08-06 21:00:00,67.0,64.0,-100.00,SSW,194,0.0,2.0,91,0.00,,,-99.99,,2013-08-07 01:00:00,
2013-08-06 21:32:00,67.0,64.0,-100.00,SSW,194,0.0,2.0,91,0.00,,,-99.99,,2013-08-07 01:32:00,
2013-08-06 21:43:00,67.0,64.0,-100.00,SSW,194,0.0,2.0,91,0.00,,,-99.99,,2013-08-07 01:43:00,
2013-08-06 21:53:00,67.0,64.0,-100.00,SSW,194,0.0,2.0,91,0.00,,,-99.99,,2013-08-07 01:53:00,
2013-08-06 22:00:00,66.0,63.0,-100.00,SSW,194,2.0,3.0,90,0.00,,,-99.99,,2013-08-07 02:00:00,
2013-08-06 22:33:00,66.0,63.0,-100.00,SSW,194,2.0,3.0,90,0.00,,,-99.99,,2013-08-07 02:33:00,
2013-08-06 22:43:00,66.0,63.0,-100.00,SSW,194,2.0,3.0,90,0.00,,,-99.99,,2013-08-07 02:43:00,
2013-08-06 22:53:00,66.0,63.0,-100.00,SSW,194,2.0,3.0,90,0.00,,,-99.99,,2013-08-07 02:53:00,
2013-08-06 23:00:00,66.0,63.0,-100.00,ESE,116,0.0,3.0,90,0.00,,,-99.99,,2013-08-07 03:00:00,
2013-08-06 23:32:00,66.0,63.0,-100.00,ESE,116,0.0,3.0,90,0.00,,,-99.99,,2013-08-07 03:32:00,
2013-08-06 23:43:00,66.0,63.0,-100.00,ESE,116,0.0,3.0,90,0.00,,,-99.99,,2013-08-07 03:43:00,
2013-08-06 23:52:00,66.0,63.0,-100.00,ESE,116,0.0,3.0,90,0.00,,,-99.99,,2013-08-07 03:52:00,